Time;durP1;ratioP1;P1;durP2;ratioP2;P2;SDS_P1;SDS_P2;PMS_P1;PMS_P2;Temp;Humidity;BMP_temperature;BMP_pressure;BME280_temperature;BME280_humidity;BME280_pressure;Samples;Min_cycle;Max_cycle;Signal;HPM_P1;HPM_P2
2020/12/02 00:00:29;;;;;;;41.78;8.25;;;22.40;99.00;;;;;;4991327;28;20031;-75
2020/12/02 00:03:32;;;;;;;36.75;7.00;;;22.20;99.40;;;;;;5003207;28;20029;-75
2020/12/02 00:06:03;;;;;;;27.45;6.97;;;22.10;99.50;;;;;;5015661;23;20552;-73
2020/12/02 00:08:44;;;;;;;31.58;6.03;;;21.90;99.50;;;;;;4992687;28;20370;-76
2020/12/02 00:11:13;;;;;;;34.88;7.38;;;22.00;99.70;;;;;;4977652;28;20388;-73
2020/12/02 00:13:44;;;;;;;33.53;6.32;;;22.20;99.10;;;;;;4982719;28;20078;-74
2020/12/02 00:16:23;;;;;;;28.80;6.10;;;22.10;99.30;;;;;;4987164;28;20027;-74
2020/12/02 00:18:54;;;;;;;25.02;6.15;;;22.20;99.20;;;;;;4986717;28;20065;-75
2020/12/02 00:21:23;;;;;;;31.05;6.68;;;22.50;99.10;;;;;;4993967;28;20505;-75
2020/12/02 00:23:54;;;;;;;48.63;9.18;;;23.60;97.10;;;;;;4980335;28;20487;-74
2020/12/02 00:26:23;;;;;;;32.50;6.93;;;23.80;97.00;;;;;;4972939;28;20034;-75
2020/12/02 00:28:50;;;;;;;32.42;7.63;;;23.60;97.90;;;;;;4980893;28;20038;-74
2020/12/02 00:31:19;;;;;;;30.70;7.15;;;23.20;98.80;;;;;;4990194;28;20033;-74
2020/12/02 00:33:47;;;;;;;29.33;7.13;;;24.00;97.90;;;;;;4983003;28;20026;-74
2020/12/02 00:36:15;;;;;;;31.77;7.47;;;24.20;96.90;;;;;;4993603;28;20014;-76
2020/12/02 00:38:42;;;;;;;34.58;6.75;;;23.60;97.80;;;;;;4992635;28;20133;-76
2020/12/02 00:41:11;;;;;;;31.80;7.75;;;23.00;98.70;;;;;;4991514;28;20057;-76
2020/12/02 00:43:38;;;;;;;36.85;7.07;;;23.10;98.00;;;;;;4984427;28;20035;-76
2020/12/02 00:46:06;;;;;;;32.95;7.30;;;22.90;98.80;;;;;;4991681;28;20019;-77
2020/12/02 00:48:34;;;;;;;28.15;6.03;;;22.80;99.10;;;;;;4983828;28;20031;-76
2020/12/02 00:51:05;;;;;;;26.52;7.40;;;23.20;97.80;;;;;;5003406;28;20054;-77
2020/12/02 00:53:35;;;;;;;30.98;6.45;;;23.50;97.20;;;;;;4983527;28;20037;-77
2020/12/02 00:56:04;;;;;;;29.38;6.38;;;23.30;97.40;;;;;;4987964;28;20027;-73
2020/12/02 00:58:52;;;;;;;27.45;6.65;;;22.90;97.60;;;;;;4983657;28;20030;-78
2020/12/02 01:01:50;;;;;;;32.97;8.07;;;22.70;98.10;;;;;;4976413;28;20027;-77
2020/12/02 01:04:20;;;;;;;34.55;7.40;;;22.60;99.20;;;;;;4982410;28;20069;-75
2020/12/02 01:06:50;;;;;;;32.75;7.18;;;22.40;99.90;;;;;;5007781;22;20049;-75
2020/12/02 01:09:18;;;;;;;41.35;7.82;;;22.30;99.70;;;;;;5017990;22;20054;-75
2020/12/02 01:11:49;;;;;;;28.80;6.97;;;22.50;99.90;;;;;;5039740;22;20049;-75
2020/12/02 01:14:18;;;;;;;29.98;6.95;;;22.80;98.90;;;;;;5031355;28;20065;-75
2020/12/02 01:16:49;;;;;;;30.27;4.57;;;23.10;98.30;;;;;;5032350;28;20033;-75
2020/12/02 01:19:24;;;;;;;29.65;6.68;;;23.80;97.80;;;;;;5026111;22;20042;-76
2020/12/02 01:22:25;;;;;;;34.47;7.68;;;23.80;97.30;;;;;;5012233;28;20018;-74
2020/12/02 01:24:57;;;;;;;35.65;6.20;;;23.50;96.80;;;;;;5007715;28;20026;-75
2020/12/02 01:27:39;;;;;;;41.63;8.30;;;23.20;97.80;;;;;;5032706;22;20080;-74
2020/12/02 01:30:11;;;;;;;33.00;7.90;;;22.70;99.10;;;;;;5028842;28;20055;-74
2020/12/02 01:32:40;;;;;;;30.75;6.47;;;23.00;99.40;;;;;;5029650;28;20621;-73
2020/12/02 01:35:10;;;;;;;36.30;7.20;;;23.40;97.60;;;;;;5029411;28;20026;-73
2020/12/02 01:37:41;;;;;;;34.20;7.25;;;23.20;98.00;;;;;;5022172;28;20037;-73
2020/12/02 01:40:18;;;;;;;31.63;5.80;;;23.00;99.10;;;;;;5032150;28;20203;-73
2020/12/02 01:42:50;;;;;;;26.50;5.95;;;23.00;97.70;;;;;;5045238;22;20021;-74
2020/12/02 01:45:23;;;;;;;30.23;5.88;;;22.80;98.30;;;;;;4992342;28;20053;-73
2020/12/02 01:48:26;;;;;;;25.77;5.60;;;22.90;98.50;;;;;;4986310;28;20128;-73
2020/12/02 01:51:11;;;;;;;28.83;5.25;;;22.70;98.20;;;;;;4988276;28;20074;-73
2020/12/02 01:54:06;;;;;;;36.42;6.82;;;22.30;98.90;;;;;;4973858;28;20027;-71
2020/12/02 01:57:10;;;;;;;36.97;5.45;;;22.30;99.90;;;;;;4980987;28;20159;-74
2020/12/02 01:59:55;;;;;;;40.78;7.22;;;22.50;99.90;;;;;;5008015;28;20030;-75
2020/12/02 02:02:32;;;;;;;36.50;5.93;;;21.90;99.90;;;;;;4987128;28;20031;-75
2020/12/02 02:05:12;;;;;;;36.90;7.85;;;21.90;99.90;;;;;;4978474;28;20106;-75
2020/12/02 02:07:40;;;;;;;39.60;6.78;;;22.20;99.90;;;;;;4989419;28;20026;-75
2020/12/02 02:10:35;;;;;;;36.00;7.40;;;22.40;99.60;;;;;;4980869;28;20070;-75
2020/12/02 02:13:11;;;;;;;27.73;5.82;;;22.60;99.10;;;;;;4973718;28;20373;-75
2020/12/02 02:15:46;;;;;;;31.27;5.93;;;22.60;99.60;;;;;;4973975;28;20034;-75
2020/12/02 02:20:51;;;;;;;39.97;7.40;;;22.70;99.30;;;;;;4997510;23;20050;-75
2020/12/02 02:23:19;;;;;;;34.50;6.78;;;22.10;99.00;;;;;;4977358;28;20049;-76
2020/12/02 02:26:17;;;;;;;33.75;6.75;;;21.80;99.90;;;;;;4989572;28;20381;-76
2020/12/02 02:28:59;;;;;;;39.83;8.13;;;21.80;99.90;;;;;;4969977;28;20065;-76
2020/12/02 02:31:29;;;;;;;32.97;7.00;;;21.90;99.90;;;;;;4972580;28;20027;-77
2020/12/02 02:33:59;;;;;;;36.13;6.15;;;21.70;99.90;;;;;;4971506;28;20027;-77
2020/12/02 02:36:28;;;;;;;37.85;6.25;;;21.60;99.90;;;;;;4971492;28;20115;-76
2020/12/02 02:38:57;;;;;;;28.02;7.03;;;21.60;99.90;;;;;;4970243;28;20027;-77
2020/12/02 02:41:27;;;;;;;36.75;7.22;;;21.70;99.90;;;;;;4972830;28;20014;-77
2020/12/02 02:43:55;;;;;;;32.88;6.72;;;21.40;99.90;;;;;;4970711;28;20062;-77
2020/12/02 02:46:23;;;;;;;33.80;7.68;;;21.30;99.90;;;;;;4972475;28;20388;-77
2020/12/02 02:48:50;;;;;;;35.47;7.10;;;21.40;99.90;;;;;;4968702;28;20027;-77
2020/12/02 02:51:18;;;;;;;27.38;5.40;;;21.50;99.90;;;;;;4971186;28;20507;-77
2020/12/02 02:53:45;;;;;;;31.95;7.40;;;21.50;99.90;;;;;;4970960;28;20039;-77
2020/12/02 02:56:13;;;;;;;30.15;7.07;;;21.40;99.90;;;;;;4972142;28;20069;-77
2020/12/02 02:58:41;;;;;;;34.00;7.18;;;21.60;99.90;;;;;;4971121;28;20041;-77
2020/12/02 03:01:09;;;;;;;25.48;5.40;;;21.60;99.90;;;;;;4969679;28;20019;-77
2020/12/02 03:03:37;;;;;;;29.27;6.50;;;21.40;99.90;;;;;;4965221;28;20074;-77
2020/12/02 03:06:07;;;;;;;30.75;6.50;;;21.50;99.90;;;;;;4952350;28;20552;-77
2020/12/02 03:08:35;;;;;;;33.22;6.32;;;21.30;99.90;;;;;;4962708;28;20031;-77
2020/12/02 03:11:06;;;;;;;30.33;6.57;;;21.30;99.90;;;;;;4972433;28;20027;-77
2020/12/02 03:13:44;;;;;;;29.65;5.47;;;21.20;99.90;;;;;;4970009;28;20046;-77
2020/12/02 03:16:33;;;;;;;32.90;5.22;;;21.10;99.90;;;;;;4972574;28;20066;-77
2020/12/02 03:19:08;;;;;;;32.05;6.63;;;21.10;99.90;;;;;;4969294;28;20047;-77
2020/12/02 03:21:35;;;;;;;28.65;6.30;;;21.10;99.90;;;;;;5040881;22;20053;-77
2020/12/02 03:24:03;;;;;;;25.05;5.10;;;21.10;99.90;;;;;;5027655;22;20053;-77
2020/12/02 03:26:30;;;;;;;30.88;6.10;;;21.20;99.90;;;;;;5029796;28;20075;-77
2020/12/02 03:28:58;;;;;;;26.92;5.75;;;21.30;99.90;;;;;;5020649;22;20136;-76
2020/12/02 03:31:25;;;;;;;25.70;5.53;;;21.50;99.90;;;;;;5009700;28;20636;-77
2020/12/02 03:33:52;;;;;;;27.67;6.93;;;21.60;99.70;;;;;;5008956;28;20125;-77
2020/12/02 03:36:21;;;;;;;30.58;5.53;;;21.60;99.90;;;;;;5018445;22;20109;-77
2020/12/02 03:38:49;;;;;;;31.60;5.45;;;21.90;99.30;;;;;;5003697;28;20022;-76
2020/12/02 03:41:18;;;;;;;29.60;6.38;;;21.80;99.60;;;;;;5004530;28;20084;-77
2020/12/02 03:43:45;;;;;;;33.05;6.82;;;21.70;99.80;;;;;;4998833;28;20038;-77
2020/12/02 03:46:13;;;;;;;32.63;6.50;;;21.60;99.90;;;;;;4995155;28;20107;-78
2020/12/02 03:48:40;;;;;;;33.08;7.35;;;21.60;99.70;;;;;;5015536;28;20182;-77
2020/12/02 03:51:08;;;;;;;32.40;6.35;;;21.50;99.60;;;;;;5033196;28;20021;-77
2020/12/02 03:53:35;;;;;;;31.00;5.32;;;21.40;99.90;;;;;;5028996;22;20049;-77
2020/12/02 03:56:03;;;;;;;30.42;5.03;;;21.40;99.90;;;;;;5014321;28;20489;-77
2020/12/02 03:58:30;;;;;;;30.05;5.32;;;21.50;99.90;;;;;;5001334;28;20418;-77
2020/12/02 04:00:57;;;;;;;29.92;6.18;;;21.80;99.90;;;;;;5014482;28;20033;-77
2020/12/02 04:03:25;;;;;;;41.13;8.57;;;22.00;99.70;;;;;;4998367;28;20129;-77
2020/12/02 04:05:52;;;;;;;32.35;6.40;;;22.20;99.00;;;;;;4991830;28;20031;-77
2020/12/02 04:08:19;;;;;;;34.22;6.22;;;21.90;99.20;;;;;;5000467;28;20483;-77
2020/12/02 04:10:47;;;;;;;30.13;6.80;;;21.60;99.30;;;;;;4998213;28;20036;-77
2020/12/02 04:13:14;;;;;;;33.38;6.95;;;21.80;99.60;;;;;;4992349;28;20034;-77
2020/12/02 04:15:41;;;;;;;31.20;6.28;;;21.80;99.70;;;;;;4994862;28;20030;-77
2020/12/02 04:18:09;;;;;;;36.83;6.80;;;21.90;99.00;;;;;;4990377;28;20026;-77
2020/12/02 04:20:36;;;;;;;26.23;5.78;;;22.00;99.20;;;;;;4994383;28;20030;-76
2020/12/02 04:23:03;;;;;;;30.48;6.38;;;22.10;97.90;;;;;;4998102;28;20049;-77
2020/12/02 04:25:31;;;;;;;29.27;5.70;;;22.10;97.70;;;;;;5012747;28;20034;-77
2020/12/02 04:27:58;;;;;;;25.15;4.93;;;21.90;98.10;;;;;;5018825;22;20053;-77
2020/12/02 04:30:26;;;;;;;29.63;5.07;;;21.70;98.30;;;;;;5014414;28;20018;-77
2020/12/02 04:32:53;;;;;;;25.05;5.03;;;21.50;98.30;;;;;;5012433;28;20037;-77
2020/12/02 04:35:20;;;;;;;23.23;5.03;;;21.30;97.90;;;;;;5015091;28;20018;-77
2020/12/02 04:37:48;;;;;;;26.52;4.93;;;21.20;98.00;;;;;;5006613;28;20597;-77
2020/12/02 04:40:31;;;;;;;28.88;6.93;;;21.20;98.30;;;;;;5013973;28;20018;-77
2020/12/02 04:43:04;;;;;;;35.40;7.82;;;21.40;98.20;;;;;;5010934;28;20494;-78
2020/12/02 04:45:33;;;;;;;28.73;6.47;;;21.40;98.90;;;;;;5012614;28;20045;-77
2020/12/02 04:48:15;;;;;;;25.88;6.65;;;21.40;99.00;;;;;;5010112;28;20022;-77
2020/12/02 04:50:42;;;;;;;29.55;7.03;;;21.50;98.80;;;;;;5013784;28;20482;-77
2020/12/02 04:53:10;;;;;;;30.05;5.40;;;21.50;99.40;;;;;;5010906;28;20037;-77
2020/12/02 04:55:37;;;;;;;26.00;6.05;;;21.50;99.90;;;;;;5009445;28;20463;-78
2020/12/02 04:58:27;;;;;;;29.25;5.47;;;21.40;99.90;;;;;;5012037;28;20491;-77
2020/12/02 05:01:12;;;;;;;28.13;5.95;;;21.40;99.90;;;;;;5013568;28;20076;-77
2020/12/02 05:03:52;;;;;;;23.92;4.88;;;21.40;99.90;;;;;;5009745;28;20038;-77
2020/12/02 05:06:29;;;;;;;24.83;5.60;;;21.20;99.90;;;;;;4993349;28;20025;-76
2020/12/02 05:09:24;;;;;;;30.00;6.00;;;21.00;99.90;;;;;;5005030;28;20510;-76
2020/12/02 05:12:01;;;;;;;25.92;5.95;;;21.00;99.90;;;;;;4993918;28;20488;-76
2020/12/02 05:14:39;;;;;;;27.33;5.88;;;21.10;99.90;;;;;;5008495;28;20033;-76
2020/12/02 05:17:16;;;;;;;30.50;5.53;;;21.20;99.90;;;;;;5012999;28;20044;-77
2020/12/02 05:19:45;;;;;;;32.60;5.88;;;21.30;99.90;;;;;;5012342;28;20105;-77
2020/12/02 05:22:16;;;;;;;28.15;4.95;;;21.30;99.90;;;;;;5013009;28;20145;-77
2020/12/02 05:24:48;;;;;;;25.48;4.93;;;21.50;99.70;;;;;;5011668;28;20121;-77
2020/12/02 05:27:20;;;;;;;33.45;5.93;;;21.40;99.90;;;;;;5017363;22;20518;-76
2020/12/02 05:32:18;;;;;;;26.88;5.45;;;21.30;99.90;;;;;;4984378;22;20109;-77
2020/12/02 05:34:46;;;;;;;32.42;5.65;;;21.30;99.90;;;;;;5008998;23;20471;-77
2020/12/02 05:37:40;;;;;;;28.85;6.47;;;21.20;99.90;;;;;;5011953;28;20109;-77
2020/12/02 05:40:14;;;;;;;23.15;4.80;;;21.00;99.90;;;;;;4985242;28;20398;-76
2020/12/02 05:42:58;;;;;;;31.60;6.45;;;20.90;99.90;;;;;;4994781;28;20035;-77
2020/12/02 05:45:45;;;;;;;25.58;4.80;;;20.80;99.90;;;;;;5028322;22;20142;-77
2020/12/02 05:48:28;;;;;;;27.92;6.75;;;20.90;99.90;;;;;;5010645;28;20104;-77
2020/12/02 05:50:57;;;;;;;25.70;5.18;;;21.00;99.90;;;;;;5012917;28;20107;-77
2020/12/02 05:53:54;;;;;;;31.88;6.07;;;20.90;99.90;;;;;;5009962;28;20502;-77
2020/12/02 05:56:22;;;;;;;29.40;5.68;;;20.90;99.90;;;;;;5012308;28;20371;-76
2020/12/02 05:58:49;;;;;;;28.98;5.32;;;20.90;99.90;;;;;;5010459;28;20168;-76
2020/12/02 06:01:19;;;;;;;28.65;5.43;;;20.90;99.90;;;;;;5028118;22;20053;-77
2020/12/02 06:03:55;;;;;;;27.45;5.10;;;20.80;99.90;;;;;;5014390;28;20073;-77
2020/12/02 06:06:26;;;;;;;27.80;4.90;;;20.70;99.90;;;;;;4991059;28;20025;-77
2020/12/02 06:08:54;;;;;;;35.50;6.35;;;20.70;99.90;;;;;;5003040;28;20026;-77
2020/12/02 06:11:31;;;;;;;29.08;4.72;;;20.70;99.90;;;;;;4999704;28;20026;-77
2020/12/02 06:14:00;;;;;;;27.75;4.97;;;20.60;99.90;;;;;;5009765;28;20037;-77
2020/12/02 06:16:49;;;;;;;21.77;4.88;;;20.60;99.90;;;;;;5011680;28;20026;-77
2020/12/02 06:19:42;;;;;;;22.27;4.55;;;20.60;99.90;;;;;;5009842;28;20336;-76
2020/12/02 06:22:10;;;;;;;25.02;5.20;;;20.60;99.90;;;;;;5010833;28;20133;-76
2020/12/02 06:24:44;;;;;;;27.83;5.68;;;20.50;99.90;;;;;;5004719;28;20041;-77
2020/12/02 06:27:17;;;;;;;29.48;5.70;;;20.40;99.90;;;;;;5007537;28;20034;-77
2020/12/02 06:30:11;;;;;;;25.48;6.35;;;20.50;99.90;;;;;;5010768;28;20029;-76
2020/12/02 06:32:39;;;;;;;30.98;7.95;;;20.60;99.90;;;;;;5009352;28;20491;-77
2020/12/02 06:35:15;;;;;;;24.27;6.20;;;20.60;99.90;;;;;;5018612;22;20073;-77
2020/12/02 06:37:43;;;;;;;27.52;4.63;;;20.60;99.90;;;;;;5008629;28;20029;-77
2020/12/02 06:40:19;;;;;;;26.83;5.53;;;20.60;99.90;;;;;;5012287;28;20108;-76
2020/12/02 06:42:46;;;;;;;28.02;6.03;;;20.60;99.90;;;;;;5009452;28;20093;-77
2020/12/02 06:45:37;;;;;;;29.10;5.72;;;20.50;99.90;;;;;;5011842;28;20033;-77
2020/12/02 06:48:39;;;;;;;25.20;4.03;;;20.60;99.90;;;;;;5007688;28;20037;-77
2020/12/02 06:51:14;;;;;;;26.83;5.18;;;20.60;99.90;;;;;;4996726;28;20519;-77
2020/12/02 06:53:41;;;;;;;24.63;5.35;;;20.60;99.90;;;;;;5010188;28;20022;-77
2020/12/02 06:56:18;;;;;;;27.42;3.95;;;20.60;99.90;;;;;;5011286;28;20359;-77
2020/12/02 06:58:59;;;;;;;20.90;4.18;;;20.60;99.90;;;;;;5008255;28;20014;-75
2020/12/02 07:01:33;;;;;;;30.65;4.88;;;20.60;99.90;;;;;;5007995;28;20116;-75
2020/12/02 07:04:05;;;;;;;26.67;5.00;;;20.50;99.90;;;;;;5005451;28;20053;-75
2020/12/02 07:06:34;;;;;;;26.17;4.80;;;20.40;99.90;;;;;;5005185;28;20268;-75
2020/12/02 07:09:13;;;;;;;22.20;4.05;;;20.20;99.90;;;;;;5008152;28;20032;-75
2020/12/02 07:11:53;;;;;;;25.25;4.93;;;20.20;99.90;;;;;;5002233;28;20117;-74
2020/12/02 07:14:42;;;;;;;26.15;4.57;;;20.20;99.90;;;;;;5005572;28;20037;-76
2020/12/02 07:17:14;;;;;;;23.15;4.28;;;20.20;99.90;;;;;;5008143;28;20034;-72
2020/12/02 07:19:47;;;;;;;29.13;5.15;;;20.30;99.90;;;;;;5005477;28;20026;-73
2020/12/02 07:22:32;;;;;;;28.67;4.78;;;20.30;99.90;;;;;;5007306;28;20116;-72
2020/12/02 07:25:04;;;;;;;;;;;20.30;99.90;;;;;;5005588;28;20116;-73
2020/12/02 07:27:32;;;;;;;23.50;4.55;;;20.20;99.90;;;;;;5007356;28;19909;-73
2020/12/02 07:30:06;;;;;;;22.85;4.63;;;20.30;99.90;;;;;;5011334;28;20050;-73
2020/12/02 07:32:34;;;;;;;21.23;4.00;;;20.20;99.90;;;;;;5013894;28;20065;-74
2020/12/02 07:35:11;;;;;;;24.08;5.38;;;20.20;99.90;;;;;;5013482;28;20042;-74
2020/12/02 07:37:39;;;;;;;23.58;4.63;;;20.10;99.90;;;;;;5013344;28;20022;-74
2020/12/02 07:40:23;;;;;;;28.80;4.85;;;20.10;99.90;;;;;;5014907;28;20025;-74
2020/12/02 07:42:50;;;;;;;24.77;3.80;;;20.10;99.90;;;;;;5012319;28;20033;-74
2020/12/02 07:45:17;;;;;;;26.20;4.75;;;20.00;99.90;;;;;;5014784;28;20030;-74
2020/12/02 07:47:59;;;;;;;36.83;6.47;;;19.90;99.90;;;;;;5010364;28;20026;-73
2020/12/02 07:50:39;;;;;;;32.20;5.57;;;19.90;99.90;;;;;;5013456;28;20112;-74
2020/12/02 07:53:18;;;;;;;32.35;6.18;;;19.90;99.90;;;;;;5012880;28;20406;-74
2020/12/02 07:55:48;;;;;;;26.00;4.18;;;20.00;99.90;;;;;;5014176;28;20033;-74
2020/12/02 07:58:37;;;;;;;29.73;4.65;;;20.00;99.90;;;;;;5012312;28;20026;-74
2020/12/02 08:01:39;;;;;;;26.52;3.75;;;20.00;99.90;;;;;;5013270;28;20029;-74
2020/12/02 08:04:21;;;;;;;27.15;5.30;;;19.80;99.90;;;;;;5008726;28;20487;-74
2020/12/02 08:07:01;;;;;;;27.38;6.05;;;19.80;99.90;;;;;;5012611;28;20395;-74
2020/12/02 08:09:39;;;;;;;45.60;5.57;;;19.90;99.90;;;;;;5011200;28;20386;-74
2020/12/02 08:12:14;;;;;;;29.10;5.32;;;20.00;99.90;;;;;;5012749;28;20029;-74
2020/12/02 08:14:59;;;;;;;25.95;5.05;;;20.00;99.90;;;;;;5001622;28;20018;-74
2020/12/02 08:17:28;;;;;;;36.08;6.25;;;20.10;99.90;;;;;;4993665;28;20153;-74
2020/12/02 08:19:59;;;;;;;22.20;4.40;;;20.10;99.90;;;;;;5014132;28;20024;-74
2020/12/02 08:22:44;;;;;;;27.35;4.15;;;20.00;99.90;;;;;;5012447;28;20034;-74
2020/12/02 08:25:12;;;;;;;29.00;5.53;;;19.70;99.90;;;;;;5014198;28;20068;-74
2020/12/02 08:27:40;;;;;;;21.33;4.72;;;19.60;99.90;;;;;;5011047;28;20420;-73
2020/12/02 08:30:13;;;;;;;21.58;4.85;;;19.50;99.90;;;;;;5013955;28;20479;-74
2020/12/02 08:33:08;;;;;;;22.20;3.92;;;19.30;99.90;;;;;;5012037;28;20022;-74
2020/12/02 08:35:41;;;;;;;23.60;4.03;;;19.20;99.90;;;;;;5013947;28;20058;-74
2020/12/02 08:38:22;;;;;;;25.23;4.70;;;19.20;99.90;;;;;;5011425;28;20052;-74
2020/12/02 08:40:54;;;;;;;26.80;5.50;;;19.10;99.90;;;;;;5009835;28;20045;-73
2020/12/02 08:43:33;;;;;;;25.73;6.30;;;19.20;99.90;;;;;;5009875;28;20040;-74
2020/12/02 08:46:14;;;;;;;25.35;4.88;;;19.20;99.90;;;;;;5012950;28;20549;-74
2020/12/02 08:48:43;;;;;;;23.80;4.15;;;19.10;99.90;;;;;;5004157;28;20518;-75
2020/12/02 08:51:17;;;;;;;24.95;4.72;;;19.10;99.90;;;;;;5008727;28;20129;-74
2020/12/02 08:53:44;;;;;;;;;;;19.10;99.90;;;;;;5023159;23;20030;-82
2020/12/02 08:56:35;;;;;;;27.75;4.97;;;19.20;99.90;;;;;;5002446;23;19952;-81
2020/12/02 08:59:05;;;;;;;27.20;5.82;;;19.20;99.90;;;;;;5006802;23;20053;-81
2020/12/02 09:01:32;;;;;;;27.40;4.00;;;19.20;99.90;;;;;;5025085;23;20037;-80
2020/12/02 09:03:59;;;;;;;17.95;3.70;;;19.30;99.90;;;;;;5008440;28;20030;-82
2020/12/02 09:06:27;;;;;;;23.70;4.20;;;19.30;99.90;;;;;;5002756;28;20030;-81
2020/12/02 09:08:55;;;;;;;25.80;4.45;;;19.40;99.90;;;;;;5009596;28;20105;-80
2020/12/02 09:11:34;;;;;;;25.48;4.38;;;19.50;99.90;;;;;;5013310;23;20045;-80
2020/12/02 09:14:03;;;;;;;25.05;4.68;;;19.60;99.90;;;;;;4993404;28;20038;-80
2020/12/02 09:16:34;;;;;;;20.48;4.22;;;19.60;99.90;;;;;;4987071;28;20104;-82
2020/12/02 09:19:02;;;;;;;16.33;3.55;;;19.40;99.90;;;;;;4985945;28;20085;-82
2020/12/02 09:21:30;;;;;;;24.50;3.88;;;19.30;99.90;;;;;;4991425;28;20042;-81
2020/12/02 09:24:00;;;;;;;24.77;3.67;;;19.00;99.90;;;;;;4993765;28;20125;-81
2020/12/02 09:26:36;;;;;;;24.33;3.75;;;18.90;99.90;;;;;;4994966;28;20105;-81
2020/12/02 09:29:06;;;;;;;21.25;4.00;;;18.90;99.90;;;;;;5029229;22;20125;-81
2020/12/02 09:31:34;;;;;;;23.52;4.78;;;19.00;99.90;;;;;;5012878;28;20072;-81
2020/12/02 09:34:03;;;;;;;28.42;5.25;;;19.10;99.90;;;;;;5013733;28;20120;-82
2020/12/02 09:36:30;;;;;;;20.00;4.18;;;19.20;99.90;;;;;;5013452;28;20032;-82
2020/12/02 09:38:58;;;;;;;24.95;4.15;;;19.30;99.90;;;;;;5014108;28;20487;-82
2020/12/02 09:41:38;;;;;;;20.90;4.22;;;19.30;99.90;;;;;;5012169;28;20030;-82
2020/12/02 09:44:29;;;;;;;19.67;4.38;;;19.20;99.90;;;;;;5013932;28;20376;-81
2020/12/02 09:47:13;;;;;;;26.85;3.83;;;19.30;99.90;;;;;;5014596;28;20025;-81
2020/12/02 09:49:43;;;;;;;21.33;4.10;;;19.30;99.90;;;;;;5014250;28;20475;-82
2020/12/02 09:52:11;;;;;;;23.25;4.30;;;19.30;99.90;;;;;;5013485;28;20030;-82
2020/12/02 09:54:41;;;;;;;18.23;4.07;;;19.20;99.90;;;;;;5012299;28;20044;-82
2020/12/02 09:57:30;;;;;;;23.60;4.28;;;19.20;99.90;;;;;;5012309;28;20038;-80
2020/12/02 09:59:59;;;;;;;23.63;5.13;;;19.20;99.90;;;;;;5038010;22;20054;-79
2020/12/02 10:02:36;;;;;;;22.35;3.92;;;19.10;99.90;;;;;;5012070;28;20034;-81
2020/12/02 10:05:37;;;;;;;28.83;5.03;;;19.10;99.90;;;;;;5013307;28;20076;-80
2020/12/02 10:08:30;;;;;;;22.45;5.18;;;19.10;99.90;;;;;;5013646;28;20113;-80
2020/12/02 10:11:34;;;;;;;21.77;4.22;;;19.20;99.90;;;;;;5011736;28;20041;-80
2020/12/02 10:14:47;;;;;;;18.58;3.33;;;19.30;99.90;;;;;;4997814;28;20030;-80
2020/12/02 10:17:49;;;;;;;24.23;3.55;;;19.30;99.90;;;;;;4997965;28;20105;-82
2020/12/02 10:20:33;;;;;;;26.85;5.40;;;19.20;99.90;;;;;;5010767;28;20082;-80
2020/12/02 10:23:34;;;;;;;25.67;4.40;;;19.20;99.90;;;;;;5012982;28;20065;-82
2020/12/02 10:26:37;;;;;;;25.55;4.00;;;19.10;99.90;;;;;;5010619;28;20482;-80
2020/12/02 10:29:23;;;;;;;25.83;4.32;;;19.10;99.90;;;;;;5003025;28;20034;-81
2020/12/02 10:32:11;;;;;;;24.85;3.63;;;19.00;99.90;;;;;;5005721;28;20068;-82
2020/12/02 10:34:42;;;;;;;20.80;3.60;;;19.00;99.90;;;;;;5000410;28;20102;-81
2020/12/02 10:37:30;;;;;;;25.95;6.25;;;18.80;99.90;;;;;;5002644;28;20072;-83
2020/12/02 10:39:58;;;;;;;23.70;4.55;;;18.70;99.90;;;;;;5005825;28;20088;-82
2020/12/02 10:43:03;;;;;;;17.95;3.63;;;18.60;99.90;;;;;;5005355;28;20133;-82
2020/12/02 10:45:31;;;;;;;25.17;5.10;;;18.50;99.90;;;;;;5006403;28;20523;-82
2020/12/02 10:48:21;;;;;;;27.25;3.70;;;18.40;99.90;;;;;;5003873;28;20459;-84
2020/12/02 10:50:49;;;;;;;21.63;3.53;;;18.40;99.90;;;;;;5005049;28;20112;-82
2020/12/02 10:53:24;;;;;;;21.88;4.13;;;18.40;99.90;;;;;;5001832;28;20092;-82
2020/12/02 10:55:52;;;;;;;23.77;3.88;;;18.40;99.90;;;;;;5007194;28;20018;-82
2020/12/02 10:58:31;;;;;;;24.25;5.10;;;18.20;99.90;;;;;;5006992;28;20026;-82
2020/12/02 11:01:07;;;;;;;17.83;3.65;;;18.30;99.90;;;;;;5026198;22;20057;-82
2020/12/02 11:06:23;;;;;;;22.88;5.03;;;18.30;99.90;;;;;;5019416;23;20410;-82
2020/12/02 11:08:54;;;;;;;26.83;4.70;;;18.20;99.90;;;;;;5025430;23;20076;-83
2020/12/02 11:11:38;;;;;;;22.08;3.63;;;18.10;99.90;;;;;;5010457;28;20025;-83
2020/12/02 11:14:32;;;;;;;25.33;5.32;;;18.00;99.90;;;;;;5027169;28;20120;-83
2020/12/02 11:17:21;;;;;;;29.27;6.77;;;18.00;99.90;;;;;;5000165;23;20038;-83
2020/12/02 11:20:03;;;;;;;29.90;6.05;;;18.00;99.90;;;;;;4987750;28;20026;-83
2020/12/02 11:23:04;;;;;;;24.45;4.70;;;18.00;99.90;;;;;;4992929;28;20031;-84
2020/12/02 11:25:40;;;;;;;24.90;5.57;;;17.80;99.90;;;;;;4997946;28;20484;-84
2020/12/02 11:28:09;;;;;;;27.63;5.05;;;17.80;99.90;;;;;;4973079;28;20094;-84
2020/12/02 11:30:41;;;;;;;25.25;4.25;;;17.90;99.90;;;;;;4970151;28;20428;-84
2020/12/02 11:35:59;;;;;;;27.50;5.35;;;17.80;99.90;;;;;;5028135;23;20045;-84
2020/12/02 11:38:46;;;;;;;36.95;4.88;;;17.70;99.90;;;;;;4990054;28;20037;-85
2020/12/02 11:41:26;;;;;;;36.55;6.20;;;17.70;99.90;;;;;;5009875;28;20029;-84
2020/12/02 11:43:59;;;;;;;27.27;4.60;;;17.70;99.90;;;;;;5003264;28;20046;-85
2020/12/02 11:46:28;;;;;;;27.07;4.87;;;17.70;99.90;;;;;;5009636;28;20018;-85
2020/12/02 11:49:10;;;;;;;27.27;5.22;;;17.60;99.90;;;;;;5008392;28;20323;-85
2020/12/02 11:52:06;;;;;;;26.73;5.15;;;17.50;99.90;;;;;;5009860;28;20057;-84
2020/12/02 11:54:34;;;;;;;23.88;5.05;;;17.60;99.90;;;;;;5008282;28;20486;-85
2020/12/02 11:57:03;;;;;;;26.58;5.00;;;17.60;99.90;;;;;;5009773;28;20029;-84
2020/12/02 11:59:35;;;;;;;26.30;5.40;;;17.60;99.90;;;;;;5008216;28;20030;-84
2020/12/02 12:02:36;;;;;;;23.80;3.97;;;17.70;99.90;;;;;;5011391;28;20022;-85
2020/12/02 12:05:21;;;;;;;34.13;5.55;;;17.70;99.90;;;;;;5007639;28;20450;-84
2020/12/02 12:08:05;;;;;;;;;;;17.60;99.90;;;;;;5022884;22;20049;-85
2020/12/02 12:10:42;;;;;;;26.13;4.87;;;17.60;99.90;;;;;;5019421;28;19977;-84
2020/12/02 12:13:27;;;;;;;32.58;5.40;;;17.50;99.90;;;;;;5020656;28;20076;-84
2020/12/02 12:16:26;;;;;;;27.08;4.85;;;17.50;99.90;;;;;;5015687;28;20112;-85
2020/12/02 12:19:20;;;;;;;26.60;4.82;;;17.40;99.90;;;;;;4991244;28;20129;-84
2020/12/02 12:22:13;;;;;;;24.00;5.50;;;17.40;99.90;;;;;;4997879;28;20023;-85
2020/12/02 12:24:44;;;;;;;31.75;5.57;;;17.40;99.90;;;;;;5004065;28;20034;-84
2020/12/02 12:27:13;;;;;;;23.98;4.20;;;17.40;99.90;;;;;;4996010;28;20156;-85
2020/12/02 12:29:40;;;;;;;28.20;5.32;;;17.40;99.90;;;;;;4995460;28;20026;-84
2020/12/02 12:32:24;;;;;;;30.52;4.70;;;17.50;99.90;;;;;;5006582;28;20033;-84
2020/12/02 12:35:02;;;;;;;32.15;5.22;;;17.60;99.90;;;;;;4998194;28;20022;-84
2020/12/02 12:37:55;;;;;;;28.00;4.82;;;17.60;99.90;;;;;;4994703;28;20503;-84
2020/12/02 12:40:35;;;;;;;26.17;4.65;;;17.60;99.90;;;;;;5008256;28;20042;-83
2020/12/02 12:43:11;;;;;;;28.33;4.18;;;17.70;99.90;;;;;;5007616;28;20030;-84
2020/12/02 12:46:00;;;;;;;22.42;3.70;;;17.70;99.90;;;;;;5000319;28;20113;-84
2020/12/02 12:48:28;;;;;;;28.27;5.15;;;17.60;99.90;;;;;;4993516;28;20374;-84
2020/12/02 12:50:57;;;;;;;27.45;4.47;;;17.70;99.90;;;;;;5003226;28;20038;-84
2020/12/02 12:53:24;;;;;;;22.73;4.18;;;17.70;99.90;;;;;;5008853;28;20029;-85
2020/12/02 12:55:55;;;;;;;22.65;4.32;;;17.70;99.90;;;;;;5008296;28;20021;-84
2020/12/02 12:58:23;;;;;;;24.27;4.93;;;17.70;99.90;;;;;;5001460;28;20027;-84
2020/12/02 13:00:51;;;;;;;27.80;4.75;;;17.70;99.90;;;;;;4995317;28;20027;-84
2020/12/02 13:03:29;;;;;;;30.73;5.00;;;17.70;99.90;;;;;;4996953;28;20156;-84
2020/12/02 13:06:06;;;;;;;29.38;4.30;;;17.60;99.90;;;;;;4991832;28;20117;-84
2020/12/02 13:08:54;;;;;;;22.75;3.97;;;17.60;99.90;;;;;;5033350;22;20057;-83
2020/12/02 13:11:51;;;;;;;28.83;4.63;;;17.50;99.90;;;;;;5006617;22;20045;-85
2020/12/02 13:18:10;;;;;;;34.97;5.57;;;17.40;99.90;;;;;;5041720;22;20127;-84
2020/12/02 13:21:15;;;;;;;26.00;5.28;;;17.40;99.90;;;;;;5025540;28;20022;-85
2020/12/02 13:26:27;;;;;;;23.27;4.22;;;17.70;99.90;;;;;;5014819;23;20042;-84
2020/12/02 13:29:24;;;;;;;28.75;4.30;;;17.70;99.90;;;;;;4988687;28;20105;-84
2020/12/02 13:32:46;;;;;;;22.33;4.80;;;17.70;99.90;;;;;;4990214;28;20061;-84
2020/12/02 13:35:14;;;;;;;27.80;4.15;;;17.70;99.90;;;;;;4983978;28;20090;-84
2020/12/02 13:37:43;;;;;;;26.85;4.93;;;17.60;99.90;;;;;;4990302;28;20027;-85
2020/12/02 13:40:10;;;;;;;23.80;3.72;;;17.60;99.90;;;;;;4985635;28;20022;-84